sensor_id;sensor_type;location;lat;lon;timestamp;pressure;altitude;pressure_sealevel;temperature;humidity
50430;BME280;36359;41.556;-8.418;2023-07-22T00:01:24;100236.25;;;23.15;68.02
50430;BME280;36359;41.556;-8.418;2023-07-22T00:03:49;100235.94;;;23.35;67.95
50430;BME280;36359;41.556;-8.418;2023-07-22T00:06:15;100239.09;;;23.39;67.53
50430;BME280;36359;41.556;-8.418;2023-07-22T00:08:40;100232.25;;;23.53;67.33
50430;BME280;36359;41.556;-8.418;2023-07-22T00:11:07;100227.94;;;23.69;66.33
50430;BME280;36359;41.556;-8.418;2023-07-22T00:13:34;100229.88;;;23.26;67.11
50430;BME280;36359;41.556;-8.418;2023-07-22T00:16:00;100224.13;;;22.98;68.17
50430;BME280;36359;41.556;-8.418;2023-07-22T00:18:27;100222.41;;;23.15;68.85
50430;BME280;36359;41.556;-8.418;2023-07-22T00:20:54;100222.72;;;23.49;67.60
50430;BME280;36359;41.556;-8.418;2023-07-22T00:23:20;100219.50;;;22.92;68.21
50430;BME280;36359;41.556;-8.418;2023-07-22T00:25:46;100224.13;;;22.98;69.26
50430;BME280;36359;41.556;-8.418;2023-07-22T00:28:12;100228.50;;;23.35;68.31
50430;BME280;36359;41.556;-8.418;2023-07-22T00:30:38;100219.25;;;23.53;66.95
50430;BME280;36359;41.556;-8.418;2023-07-22T00:33:04;100221.13;;;23.41;67.43
50430;BME280;36359;41.556;-8.418;2023-07-22T00:35:30;100225.25;;;23.39;67.65
50430;BME280;36359;41.556;-8.418;2023-07-22T00:37:57;100220.72;;;23.56;66.70
50430;BME280;36359;41.556;-8.418;2023-07-22T00:40:23;100219.34;;;23.47;67.41
50430;BME280;36359;41.556;-8.418;2023-07-22T00:42:49;100217.94;;;23.56;67.20
50430;BME280;36359;41.556;-8.418;2023-07-22T00:45:15;100222.13;;;23.47;67.08
50430;BME280;36359;41.556;-8.418;2023-07-22T00:47:41;100215.00;;;22.97;68.36
50430;BME280;36359;41.556;-8.418;2023-07-22T00:50:07;100208.13;;;23.00;69.16
50430;BME280;36359;41.556;-8.418;2023-07-22T00:52:34;100218.56;;;23.16;68.64
50430;BME280;36359;41.556;-8.418;2023-07-22T00:55:01;100215.16;;;22.47;70.02
50430;BME280;36359;41.556;-8.418;2023-07-22T00:57:27;100214.13;;;22.97;69.69
50430;BME280;36359;41.556;-8.418;2023-07-22T00:59:54;100221.25;;;23.34;68.33
50430;BME280;36359;41.556;-8.418;2023-07-22T01:02:20;100220.38;;;23.22;68.36
50430;BME280;36359;41.556;-8.418;2023-07-22T01:04:47;100215.50;;;22.87;69.04
50430;BME280;36359;41.556;-8.418;2023-07-22T01:07:13;100215.41;;;22.27;71.13
50430;BME280;36359;41.556;-8.418;2023-07-22T01:09:40;100211.78;;;21.83;73.77
50430;BME280;36359;41.556;-8.418;2023-07-22T01:12:07;100210.84;;;21.71;75.48
50430;BME280;36359;41.556;-8.418;2023-07-22T01:14:34;100209.13;;;21.95;74.33
50430;BME280;36359;41.556;-8.418;2023-07-22T01:17:02;100212.09;;;22.37;73.19
50430;BME280;36359;41.556;-8.418;2023-07-22T01:19:29;100211.09;;;22.50;72.49
50430;BME280;36359;41.556;-8.418;2023-07-22T01:21:57;100213.16;;;22.73;71.16
50430;BME280;36359;41.556;-8.418;2023-07-22T01:24:24;100213.72;;;22.63;71.43
50430;BME280;36359;41.556;-8.418;2023-07-22T01:26:51;100211.38;;;22.97;70.42
50430;BME280;36359;41.556;-8.418;2023-07-22T01:29:17;100209.31;;;23.22;69.10
50430;BME280;36359;41.556;-8.418;2023-07-22T01:31:46;100200.84;;;23.47;67.97
50430;BME280;36359;41.556;-8.418;2023-07-22T01:34:12;100201.28;;;23.32;67.83
50430;BME280;36359;41.556;-8.418;2023-07-22T01:36:38;100194.94;;;22.83;68.95
50430;BME280;36359;41.556;-8.418;2023-07-22T01:39:04;100196.22;;;22.99;69.68
50430;BME280;36359;41.556;-8.418;2023-07-22T01:41:31;100193.44;;;22.32;71.13
50430;BME280;36359;41.556;-8.418;2023-07-22T01:43:57;100192.78;;;22.12;73.67
50430;BME280;36359;41.556;-8.418;2023-07-22T01:46:23;100182.50;;;22.56;71.53
50430;BME280;36359;41.556;-8.418;2023-07-22T01:48:48;100191.06;;;22.36;72.52
50430;BME280;36359;41.556;-8.418;2023-07-22T01:51:14;100175.09;;;22.19;73.39
50430;BME280;36359;41.556;-8.418;2023-07-22T01:53:40;100173.97;;;22.02;74.36
50430;BME280;36359;41.556;-8.418;2023-07-22T01:56:05;100163.91;;;21.71;74.75
50430;BME280;36359;41.556;-8.418;2023-07-22T01:58:32;100171.53;;;21.44;75.98
50430;BME280;36359;41.556;-8.418;2023-07-22T02:00:58;100170.09;;;21.09;77.66
50430;BME280;36359;41.556;-8.418;2023-07-22T02:03:23;100170.34;;;21.83;76.13
50430;BME280;36359;41.556;-8.418;2023-07-22T02:05:49;100174.09;;;22.51;73.10
50430;BME280;36359;41.556;-8.418;2023-07-22T02:08:15;100163.00;;;22.69;71.45
50430;BME280;36359;41.556;-8.418;2023-07-22T02:10:41;100163.63;;;22.16;72.45
50430;BME280;36359;41.556;-8.418;2023-07-22T02:13:06;100167.91;;;22.12;73.49
50430;BME280;36359;41.556;-8.418;2023-07-22T02:15:32;100168.16;;;22.10;72.34
50430;BME280;36359;41.556;-8.418;2023-07-22T02:17:58;100162.28;;;21.82;73.86
50430;BME280;36359;41.556;-8.418;2023-07-22T02:20:24;100175.13;;;22.13;73.89
50430;BME280;36359;41.556;-8.418;2023-07-22T02:22:54;100173.94;;;22.45;71.96
50430;BME280;36359;41.556;-8.418;2023-07-22T02:25:20;100172.06;;;22.58;72.13
50430;BME280;36359;41.556;-8.418;2023-07-22T02:27:46;100165.50;;;22.71;71.21
50430;BME280;36359;41.556;-8.418;2023-07-22T02:30:11;100171.09;;;22.82;70.67
50430;BME280;36359;41.556;-8.418;2023-07-22T02:32:39;100172.63;;;22.97;70.07
50430;BME280;36359;41.556;-8.418;2023-07-22T02:35:09;100175.25;;;22.73;70.31
50430;BME280;36359;41.556;-8.418;2023-07-22T02:37:37;100170.81;;;22.72;70.70
50430;BME280;36359;41.556;-8.418;2023-07-22T02:40:03;100173.63;;;22.35;71.00
50430;BME280;36359;41.556;-8.418;2023-07-22T02:42:35;100175.00;;;22.26;72.32
50430;BME280;36359;41.556;-8.418;2023-07-22T02:45:01;100170.78;;;22.23;73.05
50430;BME280;36359;41.556;-8.418;2023-07-22T02:47:28;100173.31;;;22.62;71.73
50430;BME280;36359;41.556;-8.418;2023-07-22T02:49:54;100165.75;;;22.69;70.83
50430;BME280;36359;41.556;-8.418;2023-07-22T02:52:20;100160.97;;;22.76;70.39
50430;BME280;36359;41.556;-8.418;2023-07-22T02:55:16;100167.84;;;23.04;69.55
50430;BME280;36359;41.556;-8.418;2023-07-22T02:57:46;100162.47;;;23.09;69.07
50430;BME280;36359;41.556;-8.418;2023-07-22T03:00:13;100164.94;;;22.99;69.57
50430;BME280;36359;41.556;-8.418;2023-07-22T03:02:43;100162.38;;;23.16;69.03
50430;BME280;36359;41.556;-8.418;2023-07-22T03:05:09;100163.09;;;22.93;69.11
50430;BME280;36359;41.556;-8.418;2023-07-22T03:07:38;100159.41;;;21.70;73.52
50430;BME280;36359;41.556;-8.418;2023-07-22T03:10:07;100156.31;;;21.85;73.36
50430;BME280;36359;41.556;-8.418;2023-07-22T03:12:34;100146.88;;;21.49;75.39
50430;BME280;36359;41.556;-8.418;2023-07-22T03:17:32;100145.91;;;22.23;73.59
50430;BME280;36359;41.556;-8.418;2023-07-22T03:19:57;100158.97;;;22.53;70.95
50430;BME280;36359;41.556;-8.418;2023-07-22T03:22:23;100152.72;;;22.03;72.30
50430;BME280;36359;41.556;-8.418;2023-07-22T03:24:49;100156.88;;;22.49;72.13
50430;BME280;36359;41.556;-8.418;2023-07-22T03:27:15;100150.41;;;21.81;73.23
50430;BME280;36359;41.556;-8.418;2023-07-22T03:29:43;100147.78;;;22.30;71.85
50430;BME280;36359;41.556;-8.418;2023-07-22T03:32:08;100152.19;;;21.19;76.38
50430;BME280;36359;41.556;-8.418;2023-07-22T03:34:35;100149.25;;;20.82;77.71
50430;BME280;36359;41.556;-8.418;2023-07-22T03:37:00;100147.81;;;20.73;80.22
50430;BME280;36359;41.556;-8.418;2023-07-22T03:39:26;100156.94;;;21.05;78.18
50430;BME280;36359;41.556;-8.418;2023-07-22T03:41:52;100152.72;;;20.71;80.10
50430;BME280;36359;41.556;-8.418;2023-07-22T03:44:18;100152.97;;;21.26;78.48
50430;BME280;36359;41.556;-8.418;2023-07-22T03:46:43;100160.72;;;21.67;75.36
50430;BME280;36359;41.556;-8.418;2023-07-22T03:49:09;100159.03;;;21.66;76.06
50430;BME280;36359;41.556;-8.418;2023-07-22T03:51:35;100157.66;;;22.19;73.78
50430;BME280;36359;41.556;-8.418;2023-07-22T03:54:00;100158.22;;;21.84;74.65
50430;BME280;36359;41.556;-8.418;2023-07-22T03:56:26;100152.53;;;21.79;75.61
50430;BME280;36359;41.556;-8.418;2023-07-22T03:58:52;100160.13;;;22.27;73.31
50430;BME280;36359;41.556;-8.418;2023-07-22T04:01:18;100158.19;;;22.46;72.01
50430;BME280;36359;41.556;-8.418;2023-07-22T04:03:45;100167.81;;;22.25;73.30
50430;BME280;36359;41.556;-8.418;2023-07-22T04:06:10;100153.34;;;22.60;71.82
50430;BME280;36359;41.556;-8.418;2023-07-22T04:08:36;100161.72;;;22.53;71.68
50430;BME280;36359;41.556;-8.418;2023-07-22T04:11:02;100160.41;;;22.37;71.92
50430;BME280;36359;41.556;-8.418;2023-07-22T04:13:28;100153.63;;;21.96;74.21
50430;BME280;36359;41.556;-8.418;2023-07-22T04:15:54;100163.38;;;21.55;75.04
50430;BME280;36359;41.556;-8.418;2023-07-22T04:18:20;100164.56;;;21.09;77.43
50430;BME280;36359;41.556;-8.418;2023-07-22T04:20:47;100160.84;;;20.97;77.87
50430;BME280;36359;41.556;-8.418;2023-07-22T04:23:16;100164.38;;;20.73;79.55
50430;BME280;36359;41.556;-8.418;2023-07-22T04:25:44;100169.44;;;20.76;80.10
50430;BME280;36359;41.556;-8.418;2023-07-22T04:28:10;100169.28;;;21.02;78.39
50430;BME280;36359;41.556;-8.418;2023-07-22T04:30:37;100172.44;;;20.68;79.91
50430;BME280;36359;41.556;-8.418;2023-07-22T04:33:04;100169.38;;;20.89;79.11
50430;BME280;36359;41.556;-8.418;2023-07-22T04:35:40;100173.56;;;20.98;79.82
50430;BME280;36359;41.556;-8.418;2023-07-22T04:38:07;100173.50;;;21.62;76.73
50430;BME280;36359;41.556;-8.418;2023-07-22T04:40:32;100177.34;;;21.86;75.16
50430;BME280;36359;41.556;-8.418;2023-07-22T04:42:58;100182.72;;;21.99;73.36
50430;BME280;36359;41.556;-8.418;2023-07-22T04:45:24;100176.97;;;21.57;74.97
50430;BME280;36359;41.556;-8.418;2023-07-22T04:47:52;100180.56;;;21.58;75.58
50430;BME280;36359;41.556;-8.418;2023-07-22T04:50:18;100177.34;;;21.36;76.64
50430;BME280;36359;41.556;-8.418;2023-07-22T04:52:47;100175.53;;;20.84;76.49
50430;BME280;36359;41.556;-8.418;2023-07-22T04:55:13;100176.94;;;21.00;76.51
50430;BME280;36359;41.556;-8.418;2023-07-22T04:57:40;100182.00;;;21.03;78.50
50430;BME280;36359;41.556;-8.418;2023-07-22T05:00:09;100179.72;;;20.94;76.83
50430;BME280;36359;41.556;-8.418;2023-07-22T05:02:37;100177.34;;;21.04;77.52
50430;BME280;36359;41.556;-8.418;2023-07-22T05:05:04;100173.63;;;20.85;79.56
50430;BME280;36359;41.556;-8.418;2023-07-22T05:07:30;100172.75;;;21.54;76.15
50430;BME280;36359;41.556;-8.418;2023-07-22T05:09:55;100173.97;;;21.59;76.02
50430;BME280;36359;41.556;-8.418;2023-07-22T05:12:21;100178.91;;;21.75;74.79
50430;BME280;36359;41.556;-8.418;2023-07-22T05:14:48;100179.47;;;21.84;74.19
50430;BME280;36359;41.556;-8.418;2023-07-22T05:17:14;100178.53;;;22.15;73.35
50430;BME280;36359;41.556;-8.418;2023-07-22T05:19:41;100175.09;;;22.19;71.94
50430;BME280;36359;41.556;-8.418;2023-07-22T05:22:07;100177.81;;;21.83;73.10
50430;BME280;36359;41.556;-8.418;2023-07-22T05:24:33;100184.09;;;21.65;73.52
50430;BME280;36359;41.556;-8.418;2023-07-22T05:26:58;100181.19;;;21.60;75.18
50430;BME280;36359;41.556;-8.418;2023-07-22T05:29:24;100180.59;;;20.87;76.35
50430;BME280;36359;41.556;-8.418;2023-07-22T05:31:50;100182.72;;;20.47;78.44
50430;BME280;36359;41.556;-8.418;2023-07-22T05:34:16;100183.38;;;20.87;78.95
50430;BME280;36359;41.556;-8.418;2023-07-22T05:36:41;100176.28;;;20.67;78.28
50430;BME280;36359;41.556;-8.418;2023-07-22T05:39:07;100181.06;;;20.84;79.45
50430;BME280;36359;41.556;-8.418;2023-07-22T05:41:33;100185.59;;;21.42;76.57
50430;BME280;36359;41.556;-8.418;2023-07-22T05:43:59;100187.47;;;21.92;74.64
50430;BME280;36359;41.556;-8.418;2023-07-22T05:46:25;100183.09;;;21.84;74.72
50430;BME280;36359;41.556;-8.418;2023-07-22T05:48:50;100180.91;;;21.43;74.35
50430;BME280;36359;41.556;-8.418;2023-07-22T05:51:17;100187.38;;;21.80;74.80
50430;BME280;36359;41.556;-8.418;2023-07-22T05:53:43;100188.28;;;22.17;73.02
50430;BME280;36359;41.556;-8.418;2023-07-22T05:56:09;100187.13;;;22.43;71.85
50430;BME280;36359;41.556;-8.418;2023-07-22T05:58:35;100192.44;;;21.83;72.89
50430;BME280;36359;41.556;-8.418;2023-07-22T06:01:00;100188.56;;;21.34;75.65
50430;BME280;36359;41.556;-8.418;2023-07-22T06:03:26;100193.47;;;21.89;74.05
50430;BME280;36359;41.556;-8.418;2023-07-22T06:05:52;100194.19;;;21.77;74.48
50430;BME280;36359;41.556;-8.418;2023-07-22T06:08:18;100193.97;;;21.79;74.02
50430;BME280;36359;41.556;-8.418;2023-07-22T06:10:46;100196.13;;;21.77;74.58
50430;BME280;36359;41.556;-8.418;2023-07-22T06:13:12;100196.94;;;21.52;74.65
50430;BME280;36359;41.556;-8.418;2023-07-22T06:15:38;100197.25;;;21.69;74.69
50430;BME280;36359;41.556;-8.418;2023-07-22T06:18:03;100199.75;;;21.96;73.80
50430;BME280;36359;41.556;-8.418;2023-07-22T06:20:33;100204.75;;;22.06;73.15
50430;BME280;36359;41.556;-8.418;2023-07-22T06:22:59;100198.31;;;21.43;75.05
50430;BME280;36359;41.556;-8.418;2023-07-22T06:25:24;100202.66;;;20.94;77.33
50430;BME280;36359;41.556;-8.418;2023-07-22T06:27:50;100203.59;;;21.13;77.40
50430;BME280;36359;41.556;-8.418;2023-07-22T06:30:16;100210.78;;;21.77;75.09
50430;BME280;36359;41.556;-8.418;2023-07-22T06:32:41;100208.22;;;21.76;74.61
50430;BME280;36359;41.556;-8.418;2023-07-22T06:35:07;100215.13;;;22.10;73.47
50430;BME280;36359;41.556;-8.418;2023-07-22T06:37:33;100205.41;;;21.83;74.11
50430;BME280;36359;41.556;-8.418;2023-07-22T06:39:59;100216.34;;;22.14;73.19
50430;BME280;36359;41.556;-8.418;2023-07-22T06:42:25;100216.19;;;21.66;75.25
50430;BME280;36359;41.556;-8.418;2023-07-22T06:44:51;100213.97;;;21.49;75.96
50430;BME280;36359;41.556;-8.418;2023-07-22T06:47:17;100213.09;;;20.85;78.12
50430;BME280;36359;41.556;-8.418;2023-07-22T06:49:43;100216.44;;;20.29;81.27
50430;BME280;36359;41.556;-8.418;2023-07-22T06:52:09;100225.41;;;20.18;82.59
50430;BME280;36359;41.556;-8.418;2023-07-22T06:54:35;100224.53;;;20.17;83.28
50430;BME280;36359;41.556;-8.418;2023-07-22T06:57:01;100221.59;;;19.99;84.45
50430;BME280;36359;41.556;-8.418;2023-07-22T06:59:26;100221.81;;;20.04;84.57
50430;BME280;36359;41.556;-8.418;2023-07-22T07:01:52;100217.47;;;20.35;83.32
50430;BME280;36359;41.556;-8.418;2023-07-22T07:04:18;100224.44;;;21.02;80.20
50430;BME280;36359;41.556;-8.418;2023-07-22T07:06:44;100217.44;;;21.00;81.41
50430;BME280;36359;41.556;-8.418;2023-07-22T07:09:11;100223.19;;;20.98;81.59
50430;BME280;36359;41.556;-8.418;2023-07-22T07:11:37;100226.53;;;21.07;80.40
50430;BME280;36359;41.556;-8.418;2023-07-22T07:14:03;100220.97;;;21.14;79.81
50430;BME280;36359;41.556;-8.418;2023-07-22T07:19:01;100229.94;;;20.64;81.99
50430;BME280;36359;41.556;-8.418;2023-07-22T07:21:27;100232.53;;;20.39;80.99
50430;BME280;36359;41.556;-8.418;2023-07-22T07:23:54;100229.59;;;20.20;81.54
50430;BME280;36359;41.556;-8.418;2023-07-22T07:26:20;100238.34;;;20.04;81.48
50430;BME280;36359;41.556;-8.418;2023-07-22T07:28:47;100244.91;;;20.10;81.78
50430;BME280;36359;41.556;-8.418;2023-07-22T07:31:13;100236.63;;;20.16;81.10
50430;BME280;36359;41.556;-8.418;2023-07-22T07:33:39;100243.19;;;20.22;80.47
50430;BME280;36359;41.556;-8.418;2023-07-22T07:36:04;100246.78;;;20.23;79.46
50430;BME280;36359;41.556;-8.418;2023-07-22T07:38:30;100250.66;;;20.80;78.81
50430;BME280;36359;41.556;-8.418;2023-07-22T07:40:59;100250.47;;;20.75;76.80
50430;BME280;36359;41.556;-8.418;2023-07-22T07:43:26;100257.72;;;20.56;77.57
50430;BME280;36359;41.556;-8.418;2023-07-22T07:46:15;100254.34;;;20.60;77.92
50430;BME280;36359;41.556;-8.418;2023-07-22T07:48:44;100253.91;;;20.63;77.49
50430;BME280;36359;41.556;-8.418;2023-07-22T07:51:12;100242.66;;;21.10;75.56
50430;BME280;36359;41.556;-8.418;2023-07-22T07:53:38;100248.50;;;20.89;75.39
50430;BME280;36359;41.556;-8.418;2023-07-22T07:56:04;100252.00;;;20.51;77.97
50430;BME280;36359;41.556;-8.418;2023-07-22T07:58:30;100253.84;;;20.77;77.70
50430;BME280;36359;41.556;-8.418;2023-07-22T08:00:55;100256.34;;;20.85;76.51
50430;BME280;36359;41.556;-8.418;2023-07-22T08:03:21;100258.91;;;21.25;75.89
50430;BME280;36359;41.556;-8.418;2023-07-22T08:05:47;100259.16;;;21.17;74.27
50430;BME280;36359;41.556;-8.418;2023-07-22T08:08:12;100264.31;;;21.06;74.79
50430;BME280;36359;41.556;-8.418;2023-07-22T08:10:38;100262.09;;;21.22;74.60
50430;BME280;36359;41.556;-8.418;2023-07-22T08:13:04;100254.94;;;21.14;74.76
50430;BME280;36359;41.556;-8.418;2023-07-22T08:15:31;100256.50;;;21.35;74.39
50430;BME280;36359;41.556;-8.418;2023-07-22T08:17:56;100263.69;;;21.43;74.26
50430;BME280;36359;41.556;-8.418;2023-07-22T08:20:22;100259.66;;;21.70;73.65
50430;BME280;36359;41.556;-8.418;2023-07-22T08:22:48;100258.38;;;21.73;73.47
50430;BME280;36359;41.556;-8.418;2023-07-22T08:25:14;100255.09;;;21.58;73.00
50430;BME280;36359;41.556;-8.418;2023-07-22T08:27:39;100243.22;;;21.57;74.28
50430;BME280;36359;41.556;-8.418;2023-07-22T08:30:05;100250.44;;;21.83;72.88
50430;BME280;36359;41.556;-8.418;2023-07-22T08:32:31;100258.66;;;21.90;72.50
50430;BME280;36359;41.556;-8.418;2023-07-22T08:34:57;100252.25;;;21.71;72.44
50430;BME280;36359;41.556;-8.418;2023-07-22T08:37:22;100250.66;;;21.57;73.01
50430;BME280;36359;41.556;-8.418;2023-07-22T08:39:48;100244.56;;;21.98;72.14
50430;BME280;36359;41.556;-8.418;2023-07-22T08:42:14;100255.25;;;21.94;70.61
50430;BME280;36359;41.556;-8.418;2023-07-22T08:44:43;100253.69;;;21.98;71.07
50430;BME280;36359;41.556;-8.418;2023-07-22T08:47:14;100253.31;;;21.70;72.26
50430;BME280;36359;41.556;-8.418;2023-07-22T08:49:44;100254.88;;;21.84;72.53
50430;BME280;36359;41.556;-8.418;2023-07-22T08:52:13;100258.34;;;21.80;71.65
50430;BME280;36359;41.556;-8.418;2023-07-22T08:54:40;100251.22;;;21.90;71.36
50430;BME280;36359;41.556;-8.418;2023-07-22T08:57:08;100254.63;;;21.92;71.16
50430;BME280;36359;41.556;-8.418;2023-07-22T08:59:35;100256.56;;;22.10;70.90
50430;BME280;36359;41.556;-8.418;2023-07-22T09:02:01;100257.00;;;22.32;69.53
50430;BME280;36359;41.556;-8.418;2023-07-22T09:04:28;100250.25;;;22.28;69.99
50430;BME280;36359;41.556;-8.418;2023-07-22T09:06:54;100246.81;;;22.51;69.49
50430;BME280;36359;41.556;-8.418;2023-07-22T09:09:21;100248.09;;;22.67;69.02
50430;BME280;36359;41.556;-8.418;2023-07-22T09:11:48;100252.41;;;22.63;69.41
50430;BME280;36359;41.556;-8.418;2023-07-22T09:14:16;100261.16;;;22.97;68.81
50430;BME280;36359;41.556;-8.418;2023-07-22T09:16:44;100258.69;;;23.37;65.60
50430;BME280;36359;41.556;-8.418;2023-07-22T09:19:09;100260.91;;;23.17;67.03
50430;BME280;36359;41.556;-8.418;2023-07-22T09:21:35;100268.13;;;23.48;66.18
50430;BME280;36359;41.556;-8.418;2023-07-22T09:24:24;100272.25;;;23.57;63.70
50430;BME280;36359;41.556;-8.418;2023-07-22T09:26:51;100267.50;;;23.46;64.89
50430;BME280;36359;41.556;-8.418;2023-07-22T09:29:17;100278.19;;;23.72;64.82
50430;BME280;36359;41.556;-8.418;2023-07-22T09:31:51;100281.34;;;23.88;64.13
50430;BME280;36359;41.556;-8.418;2023-07-22T09:34:17;100273.31;;;23.98;64.20
50430;BME280;36359;41.556;-8.418;2023-07-22T09:36:50;100271.38;;;23.45;65.48
50430;BME280;36359;41.556;-8.418;2023-07-22T09:39:16;100282.19;;;23.88;64.58
50430;BME280;36359;41.556;-8.418;2023-07-22T09:41:42;100279.31;;;23.83;63.44
50430;BME280;36359;41.556;-8.418;2023-07-22T09:44:09;100287.16;;;23.98;62.92
50430;BME280;36359;41.556;-8.418;2023-07-22T09:46:36;100274.78;;;24.12;63.08
50430;BME280;36359;41.556;-8.418;2023-07-22T09:49:07;100275.84;;;24.35;63.79
50430;BME280;36359;41.556;-8.418;2023-07-22T09:51:38;100279.44;;;24.70;62.03
50430;BME280;36359;41.556;-8.418;2023-07-22T09:54:04;100274.66;;;24.54;61.22
50430;BME280;36359;41.556;-8.418;2023-07-22T09:56:30;100275.84;;;24.35;60.28
50430;BME280;36359;41.556;-8.418;2023-07-22T09:58:58;100279.47;;;24.47;61.10
50430;BME280;36359;41.556;-8.418;2023-07-22T10:01:25;100274.31;;;24.51;61.41
50430;BME280;36359;41.556;-8.418;2023-07-22T10:03:55;100277.06;;;25.03;59.72
50430;BME280;36359;41.556;-8.418;2023-07-22T10:06:27;100269.47;;;25.38;59.10
50430;BME280;36359;41.556;-8.418;2023-07-22T10:08:56;100269.81;;;25.42;58.67
50430;BME280;36359;41.556;-8.418;2023-07-22T10:11:25;100263.59;;;25.52;57.87
50430;BME280;36359;41.556;-8.418;2023-07-22T10:13:53;100261.22;;;25.44;58.41
50430;BME280;36359;41.556;-8.418;2023-07-22T10:16:19;100265.88;;;25.55;57.56
50430;BME280;36359;41.556;-8.418;2023-07-22T10:18:46;100264.63;;;25.05;58.75
50430;BME280;36359;41.556;-8.418;2023-07-22T10:21:12;100263.13;;;25.26;59.03
50430;BME280;36359;41.556;-8.418;2023-07-22T10:23:39;100267.16;;;25.19;59.19
50430;BME280;36359;41.556;-8.418;2023-07-22T10:26:05;100265.09;;;25.43;58.45
50430;BME280;36359;41.556;-8.418;2023-07-22T10:28:32;100271.19;;;25.56;57.92
50430;BME280;36359;41.556;-8.418;2023-07-22T10:30:59;100267.56;;;25.73;57.64
50430;BME280;36359;41.556;-8.418;2023-07-22T10:33:25;100269.28;;;25.74;57.78
50430;BME280;36359;41.556;-8.418;2023-07-22T10:36:07;100272.09;;;26.08;56.48
50430;BME280;36359;41.556;-8.418;2023-07-22T10:38:35;100272.03;;;26.41;55.94
50430;BME280;36359;41.556;-8.418;2023-07-22T10:41:04;100270.31;;;26.01;55.54
50430;BME280;36359;41.556;-8.418;2023-07-22T10:43:36;100267.97;;;26.10;56.25
50430;BME280;36359;41.556;-8.418;2023-07-22T10:46:12;100272.38;;;26.45;54.85
50430;BME280;36359;41.556;-8.418;2023-07-22T10:48:41;100271.19;;;26.41;57.08
50430;BME280;36359;41.556;-8.418;2023-07-22T10:51:12;100276.19;;;26.78;54.41
50430;BME280;36359;41.556;-8.418;2023-07-22T10:53:43;100273.47;;;27.05;53.38
50430;BME280;36359;41.556;-8.418;2023-07-22T11:11:57;100271.13;;;26.96;51.43
50430;BME280;36359;41.556;-8.418;2023-07-22T11:14:25;100266.16;;;26.99;51.62
50430;BME280;36359;41.556;-8.418;2023-07-22T11:16:52;100258.31;;;27.17;51.22
50430;BME280;36359;41.556;-8.418;2023-07-22T11:19:20;100273.53;;;27.10;49.01
50430;BME280;36359;41.556;-8.418;2023-07-22T11:21:47;100260.91;;;27.24;49.44
50430;BME280;36359;41.556;-8.418;2023-07-22T11:24:14;100262.88;;;27.51;48.41
50430;BME280;36359;41.556;-8.418;2023-07-22T11:26:40;100256.84;;;27.64;48.92
50430;BME280;36359;41.556;-8.418;2023-07-22T11:29:07;100259.97;;;28.00;47.57
50430;BME280;36359;41.556;-8.418;2023-07-22T11:33:59;100254.13;;;27.42;48.37
50430;BME280;36359;41.556;-8.418;2023-07-22T11:36:26;100256.38;;;28.04;46.60
50430;BME280;36359;41.556;-8.418;2023-07-22T11:38:52;100250.47;;;27.36;47.62
50430;BME280;36359;41.556;-8.418;2023-07-22T11:41:20;100246.59;;;27.70;47.70
50430;BME280;36359;41.556;-8.418;2023-07-22T11:43:46;100235.34;;;27.32;47.26
50430;BME280;36359;41.556;-8.418;2023-07-22T11:46:11;100235.50;;;27.21;48.78
50430;BME280;36359;41.556;-8.418;2023-07-22T11:48:37;100232.88;;;27.63;48.30
50430;BME280;36359;41.556;-8.418;2023-07-22T11:51:03;100225.03;;;27.60;46.34
50430;BME280;36359;41.556;-8.418;2023-07-22T11:53:29;100227.59;;;27.67;47.20
50430;BME280;36359;41.556;-8.418;2023-07-22T11:55:55;100222.50;;;27.85;48.24
50430;BME280;36359;41.556;-8.418;2023-07-22T11:58:25;100222.84;;;28.37;48.38
50430;BME280;36359;41.556;-8.418;2023-07-22T12:01:09;100225.47;;;28.53;47.24
50430;BME280;36359;41.556;-8.418;2023-07-22T12:03:35;100227.81;;;28.82;45.76
50430;BME280;36359;41.556;-8.418;2023-07-22T12:06:11;100216.66;;;28.82;46.23
50430;BME280;36359;41.556;-8.418;2023-07-22T12:08:43;100216.13;;;28.38;47.92
50430;BME280;36359;41.556;-8.418;2023-07-22T12:11:16;100215.72;;;28.61;46.03
50430;BME280;36359;41.556;-8.418;2023-07-22T12:13:42;100216.66;;;28.29;45.48
50430;BME280;36359;41.556;-8.418;2023-07-22T12:16:12;100215.78;;;28.76;44.95
50430;BME280;36359;41.556;-8.418;2023-07-22T12:18:44;100212.94;;;28.61;44.60
50430;BME280;36359;41.556;-8.418;2023-07-22T12:21:11;100208.00;;;28.84;44.29
50430;BME280;36359;41.556;-8.418;2023-07-22T12:23:37;100217.09;;;28.59;44.01
50430;BME280;36359;41.556;-8.418;2023-07-22T12:26:06;100208.97;;;28.42;45.14
50430;BME280;36359;41.556;-8.418;2023-07-22T12:28:32;100195.97;;;28.73;44.27
50430;BME280;36359;41.556;-8.418;2023-07-22T12:30:58;100209.19;;;29.03;43.45
50430;BME280;36359;41.556;-8.418;2023-07-22T12:33:25;100201.31;;;28.80;42.79
50430;BME280;36359;41.556;-8.418;2023-07-22T12:35:53;100209.91;;;28.68;42.92
50430;BME280;36359;41.556;-8.418;2023-07-22T12:38:18;100205.56;;;29.03;42.61
50430;BME280;36359;41.556;-8.418;2023-07-22T12:40:44;100200.75;;;28.83;43.33
50430;BME280;36359;41.556;-8.418;2023-07-22T12:43:10;100206.47;;;29.29;42.38
50430;BME280;36359;41.556;-8.418;2023-07-22T12:45:35;100200.91;;;29.34;41.72
50430;BME280;36359;41.556;-8.418;2023-07-22T12:48:04;100196.28;;;28.82;44.35
50430;BME280;36359;41.556;-8.418;2023-07-22T12:50:31;100195.13;;;28.72;44.35
50430;BME280;36359;41.556;-8.418;2023-07-22T12:53:00;100190.53;;;29.04;43.69
50430;BME280;36359;41.556;-8.418;2023-07-22T12:55:26;100186.09;;;29.28;43.13
50430;BME280;36359;41.556;-8.418;2023-07-22T12:57:53;100186.94;;;29.54;43.26
50430;BME280;36359;41.556;-8.418;2023-07-22T13:00:18;100186.38;;;29.22;41.89
50430;BME280;36359;41.556;-8.418;2023-07-22T13:02:44;100188.88;;;29.18;42.53